createdAt,value
2023-04-16T00:01:08.566Z,97.65
2023-04-16T00:03:35.313Z,98.04
2023-04-16T00:06:02.107Z,98.04
2023-04-16T00:08:28.486Z,98.31
2023-04-16T00:10:54.934Z,98.57
2023-04-16T00:13:22.541Z,98.29
2023-04-16T00:15:49.010Z,97.74
2023-04-16T00:18:15.393Z,98.27
2023-04-16T00:20:41.843Z,97.42
2023-04-16T00:23:08.200Z,98.31
2023-04-16T00:25:34.694Z,98.08
2023-04-16T00:28:01.139Z,98.57
2023-04-16T00:30:27.658Z,98.45
2023-04-16T00:32:54.189Z,98.32
2023-04-16T00:35:20.654Z,98.44
2023-04-16T00:37:47.234Z,98.41
2023-04-16T00:40:13.725Z,98.67
2023-04-16T00:42:40.321Z,98.63
2023-04-16T00:45:07.398Z,98.54
2023-04-16T00:47:33.960Z,97.98
2023-04-16T00:50:00.491Z,97.95
2023-04-16T00:52:27.554Z,97.97
2023-04-16T00:54:54.038Z,98.19
2023-04-16T00:57:23.932Z,98.47
2023-04-16T00:59:51.328Z,98.42
2023-04-16T01:02:18.003Z,98.67
2023-04-16T01:04:44.571Z,98.90
2023-04-16T01:07:11.233Z,98.85
2023-04-16T01:09:37.664Z,98.80
2023-04-16T01:12:04.228Z,98.73
2023-04-16T01:14:36.059Z,98.76
2023-04-16T01:17:03.864Z,98.50
2023-04-16T01:19:36.316Z,98.07
2023-04-16T01:22:03.806Z,98.63
2023-04-16T01:24:30.699Z,98.29
2023-04-16T01:27:00.589Z,98.59
2023-04-16T01:29:27.268Z,98.12
2023-04-16T01:31:54.296Z,98.52
2023-04-16T01:34:21.084Z,98.28
2023-04-16T01:36:47.518Z,98.57
2023-04-16T01:39:16.271Z,98.88
2023-04-16T01:41:43.252Z,99.09
2023-04-16T01:44:09.712Z,98.96
2023-04-16T01:46:37.717Z,98.81
2023-04-16T01:49:05.172Z,98.65
2023-04-16T01:51:32.288Z,98.83
2023-04-16T01:53:58.926Z,98.77
2023-04-16T01:56:25.990Z,98.34
2023-04-16T01:58:53.184Z,98.97
2023-04-16T02:01:20.100Z,98.82
2023-04-16T02:03:47.521Z,98.42
2023-04-16T02:06:14.744Z,98.22
2023-04-16T02:08:41.806Z,98.55
2023-04-16T02:11:08.214Z,98.45
2023-04-16T02:13:34.857Z,98.19
2023-04-16T02:16:02.413Z,98.41
2023-04-16T02:18:28.900Z,98.76
2023-04-16T02:20:58.441Z,98.98
2023-04-16T02:23:24.905Z,98.28
2023-04-16T02:25:51.622Z,98.27
2023-04-16T02:28:18.049Z,98.79
2023-04-16T02:30:44.548Z,99.23
2023-04-16T02:33:12.180Z,98.93
2023-04-16T02:35:39.630Z,98.67
2023-04-16T02:38:06.510Z,98.40
2023-04-16T02:40:33.169Z,98.24
2023-04-16T02:42:59.748Z,98.04
2023-04-16T02:45:26.147Z,97.13
2023-04-16T02:47:52.597Z,97.10
2023-04-16T02:50:19.176Z,98.12
2023-04-16T02:52:46.016Z,98.20
2023-04-16T02:55:12.480Z,97.96
2023-04-16T02:57:39.003Z,98.33
2023-04-16T03:00:06.115Z,97.99
2023-04-16T03:02:32.671Z,97.89
2023-04-16T03:04:59.396Z,97.78
2023-04-16T03:07:26.180Z,97.86
2023-04-16T03:09:52.746Z,97.83
2023-04-16T03:12:19.187Z,98.36
2023-04-16T03:14:45.648Z,98.38
2023-04-16T03:17:12.218Z,98.20
2023-04-16T03:19:38.612Z,98.60
2023-04-16T03:22:05.382Z,98.31
2023-04-16T03:24:32.184Z,99.08
2023-04-16T03:26:58.943Z,99.00
2023-04-16T03:29:26.704Z,99.15
2023-04-16T03:31:53.368Z,98.68
2023-04-16T03:34:19.881Z,98.63
2023-04-16T03:36:46.452Z,98.21
2023-04-16T03:39:15.309Z,97.94
2023-04-16T03:41:41.875Z,97.64
2023-04-16T03:44:08.761Z,96.44
2023-04-16T03:46:35.478Z,96.09
2023-04-16T03:49:01.895Z,96.48
2023-04-16T03:51:28.449Z,95.79
2023-04-16T03:53:55.125Z,95.99
2023-04-16T03:56:21.564Z,94.27
2023-04-16T03:58:48.109Z,94.28
2023-04-16T04:01:14.490Z,94.94
2023-04-16T04:03:41.140Z,95.40
2023-04-16T04:06:08.676Z,95.47
2023-04-16T04:08:35.543Z,95.00
2023-04-16T04:11:02.037Z,95.74
2023-04-16T04:13:28.560Z,95.86
2023-04-16T04:15:55.481Z,96.68
2023-04-16T04:18:22.035Z,96.10
2023-04-16T04:20:48.616Z,95.82
2023-04-16T04:23:15.591Z,96.69
2023-04-16T04:25:42.085Z,96.67
2023-04-16T04:28:08.562Z,96.69
2023-04-16T04:30:35.982Z,97.28
2023-04-16T04:33:02.710Z,97.66
2023-04-16T04:35:29.217Z,97.18
2023-04-16T04:37:55.726Z,96.46
2023-04-16T04:40:22.361Z,96.66
2023-04-16T04:42:49.048Z,96.64
2023-04-16T04:45:16.091Z,96.30
2023-04-16T04:47:42.754Z,96.27
2023-04-16T04:50:09.806Z,96.21
2023-04-16T04:52:36.386Z,96.38
2023-04-16T04:55:02.942Z,95.83
2023-04-16T04:57:29.303Z,96.32
2023-04-16T04:59:55.931Z,96.32
2023-04-16T05:02:22.524Z,96.77
2023-04-16T05:04:49.068Z,96.77
2023-04-16T05:07:16.279Z,96.31
2023-04-16T05:09:42.865Z,96.37
2023-04-16T05:12:09.444Z,95.77
2023-04-16T05:14:36.326Z,95.70
2023-04-16T05:17:02.962Z,96.23
2023-04-16T05:19:29.706Z,95.72
2023-04-16T05:21:56.252Z,95.52
2023-04-16T05:24:23.256Z,95.47
2023-04-16T05:26:49.862Z,95.70
2023-04-16T05:29:16.287Z,95.13
2023-04-16T05:31:43.067Z,95.45
2023-04-16T05:34:09.606Z,96.33
2023-04-16T05:36:36.045Z,96.19
2023-04-16T05:39:02.870Z,96.56
2023-04-16T05:41:29.396Z,96.11
2023-04-16T05:43:56.172Z,97.67
2023-04-16T05:46:22.767Z,97.20
2023-04-16T05:48:49.322Z,97.02
2023-04-16T05:51:15.874Z,97.35
2023-04-16T05:53:42.362Z,97.75
2023-04-16T05:56:09.079Z,97.60
2023-04-16T05:58:35.533Z,98.08
2023-04-16T06:01:02.206Z,98.43
2023-04-16T06:03:28.827Z,98.89
2023-04-16T06:05:55.588Z,99.99
2023-04-16T06:08:22.188Z,99.52
2023-04-16T06:10:49.184Z,99.80
2023-04-16T06:13:15.657Z,100.00
2023-04-16T06:15:42.338Z,100.00
2023-04-16T06:18:09.206Z,100.00
2023-04-16T06:20:36.256Z,100.00
2023-04-16T06:23:02.749Z,100.00
2023-04-16T06:25:29.321Z,100.00
2023-04-16T06:27:56.027Z,100.00
2023-04-16T06:30:22.493Z,100.00
2023-04-16T06:32:49.322Z,100.00
2023-04-16T06:35:16.062Z,100.00
2023-04-16T06:37:42.577Z,100.00
2023-04-16T06:40:09.475Z,100.00
2023-04-16T06:42:36.085Z,100.00
2023-04-16T06:45:02.701Z,100.00
2023-04-16T06:47:29.194Z,100.00
2023-04-16T06:49:55.671Z,100.00
2023-04-16T06:52:22.250Z,100.00
2023-04-16T06:54:48.778Z,100.00
2023-04-16T06:57:16.169Z,100.00
2023-04-16T06:59:42.829Z,100.00
2023-04-16T07:02:10.481Z,100.00
2023-04-16T07:04:37.310Z,100.00
2023-04-16T07:07:03.847Z,100.00
2023-04-16T07:09:30.623Z,100.00
2023-04-16T07:11:57.134Z,100.00
2023-04-16T07:14:23.614Z,100.00
2023-04-16T07:16:50.210Z,100.00
2023-04-16T07:19:16.795Z,100.00
2023-04-16T07:21:43.728Z,100.00
2023-04-16T07:24:11.610Z,99.82
2023-04-16T07:26:38.110Z,100.00
2023-04-16T07:29:04.584Z,100.00
2023-04-16T07:31:31.374Z,99.54
2023-04-16T07:33:58.383Z,99.86
2023-04-16T07:36:25.229Z,99.71
2023-04-16T07:38:51.656Z,99.97
2023-04-16T07:41:18.134Z,99.37
2023-04-16T07:43:44.542Z,99.44
2023-04-16T07:46:11.256Z,98.35
2023-04-16T07:48:37.659Z,99.14
2023-04-16T07:51:04.116Z,98.94
2023-04-16T07:53:30.732Z,100.00
2023-04-16T07:55:57.187Z,99.64
2023-04-16T07:58:23.731Z,100.00
2023-04-16T08:00:51.056Z,99.47
2023-04-16T08:03:18.282Z,99.76
2023-04-16T08:05:45.185Z,99.05
2023-04-16T08:08:11.709Z,98.19
2023-04-16T08:10:39.265Z,97.22
2023-04-16T08:13:05.926Z,95.87
2023-04-16T08:15:32.471Z,96.12
2023-04-16T08:17:59.655Z,95.93
2023-04-16T08:20:26.259Z,95.06
2023-04-16T08:22:54.194Z,94.17
2023-04-16T08:25:20.821Z,93.71
2023-04-16T08:27:50.133Z,92.48
2023-04-16T08:30:16.714Z,90.57
2023-04-16T08:32:43.797Z,91.83
2023-04-16T08:35:10.348Z,90.82
2023-04-16T08:37:36.779Z,89.31
2023-04-16T08:40:03.653Z,90.02
2023-04-16T08:42:34.027Z,88.06
2023-04-16T08:45:13.233Z,87.73
2023-04-16T08:47:41.328Z,87.77
2023-04-16T08:50:11.204Z,88.16
2023-04-16T08:52:43.285Z,88.88
2023-04-16T08:55:17.122Z,87.65
2023-04-16T08:57:58.141Z,88.46
2023-04-16T09:00:25.352Z,87.81
2023-04-16T09:02:53.061Z,87.16
2023-04-16T09:05:22.654Z,87.62
2023-04-16T09:07:49.253Z,88.11
2023-04-16T09:10:16.451Z,87.92
2023-04-16T09:12:43.527Z,87.53
2023-04-16T09:15:11.545Z,88.41
2023-04-16T09:17:38.827Z,87.64
2023-04-16T09:20:08.718Z,86.82
2023-04-16T09:22:36.223Z,88.19
2023-04-16T09:25:02.876Z,88.17
2023-04-16T09:27:30.335Z,87.33
2023-04-16T09:29:56.853Z,87.64
2023-04-16T09:32:27.651Z,86.07
2023-04-16T09:35:01.851Z,86.56
2023-04-16T09:37:30.442Z,84.82
2023-04-16T09:40:04.647Z,85.33
2023-04-16T09:42:33.478Z,85.97
2023-04-16T09:45:02.638Z,86.10
2023-04-16T09:47:44.782Z,85.22
2023-04-16T09:50:19.257Z,85.52
2023-04-16T09:52:49.525Z,85.58
2023-04-16T09:55:15.967Z,83.61
2023-04-16T09:57:42.486Z,84.60
2023-04-16T10:00:10.254Z,83.24
2023-04-16T10:02:41.587Z,84.43
2023-04-16T10:05:08.824Z,83.04
2023-04-16T10:07:36.798Z,84.19
2023-04-16T10:10:04.239Z,84.50
2023-04-16T10:12:32.652Z,84.16
2023-04-16T10:14:59.181Z,84.54
2023-04-16T10:17:26.440Z,85.55
2023-04-16T10:19:54.697Z,84.69
2023-04-16T10:22:21.338Z,84.67
2023-04-16T10:24:48.788Z,85.88
2023-04-16T10:27:16.596Z,84.54
2023-04-16T10:29:44.286Z,86.15
2023-04-16T10:32:11.323Z,86.00
2023-04-16T10:34:37.942Z,86.54
2023-04-16T10:37:04.450Z,86.39
2023-04-16T10:39:31.006Z,86.05
2023-04-16T10:42:11.769Z,85.95
2023-04-16T10:44:39.997Z,86.31
2023-04-16T10:47:12.799Z,85.96
2023-04-16T10:49:40.254Z,85.67
2023-04-16T10:52:12.631Z,86.23
2023-04-16T10:54:40.306Z,85.87
2023-04-16T10:57:09.096Z,86.41
2023-04-16T10:59:39.754Z,85.33
2023-04-16T11:02:13.741Z,85.70
2023-04-16T11:04:44.238Z,86.48
2023-04-16T11:07:24.273Z,85.16
2023-04-16T11:10:05.197Z,86.11
2023-04-16T11:12:39.607Z,85.97
2023-04-16T11:15:11.151Z,85.75
2023-04-16T11:17:49.098Z,85.27
2023-04-16T11:20:23.984Z,84.01
2023-04-16T11:22:52.372Z,84.81
2023-04-16T11:25:31.611Z,84.40
2023-04-16T11:28:01.616Z,84.28
2023-04-16T11:30:35.396Z,84.28
2023-04-16T11:33:07.675Z,84.22
2023-04-16T11:35:34.107Z,84.56
2023-04-16T11:38:00.841Z,84.17
2023-04-16T11:40:31.221Z,80.95
2023-04-16T11:43:02.862Z,80.81
2023-04-16T11:45:29.383Z,80.20
2023-04-16T11:47:57.755Z,80.95
2023-04-16T11:50:28.667Z,79.53
2023-04-16T11:52:57.027Z,79.70
2023-04-16T11:55:24.146Z,79.45
2023-04-16T11:57:51.728Z,77.71
2023-04-16T12:00:24.680Z,78.56
2023-04-16T12:02:55.352Z,79.27
2023-04-16T12:05:31.325Z,79.29
2023-04-16T12:08:03.330Z,78.25
2023-04-16T12:10:30.833Z,79.08
2023-04-16T12:13:17.833Z,78.61
2023-04-16T12:15:51.855Z,77.18
2023-04-16T12:18:20.202Z,77.43
2023-04-16T12:20:47.578Z,76.10
2023-04-16T12:23:28.500Z,74.56
2023-04-16T12:25:55.920Z,73.65
2023-04-16T12:28:33.964Z,73.25
2023-04-16T12:31:01.793Z,73.52
2023-04-16T12:33:28.789Z,74.26
2023-04-16T12:35:55.516Z,72.93
2023-04-16T12:38:24.298Z,73.76
2023-04-16T12:40:51.965Z,72.03
2023-04-16T12:43:19.685Z,72.17
2023-04-16T12:45:46.304Z,72.79
2023-04-16T12:48:12.676Z,72.33
2023-04-16T12:50:39.785Z,71.87
2023-04-16T12:53:06.305Z,72.05
2023-04-16T12:55:32.821Z,72.60
2023-04-16T12:57:59.293Z,72.39
2023-04-16T13:00:25.822Z,71.86
2023-04-16T13:02:52.492Z,71.52
2023-04-16T13:05:19.591Z,70.71
2023-04-16T13:07:46.417Z,71.87
2023-04-16T13:10:13.501Z,71.40
2023-04-16T13:12:41.266Z,72.30
2023-04-16T13:15:08.506Z,72.05
2023-04-16T13:17:35.033Z,72.98
2023-04-16T13:20:01.751Z,72.11
2023-04-16T13:22:28.415Z,70.78
2023-04-16T13:24:55.426Z,69.61
2023-04-16T13:27:22.021Z,70.18
2023-04-16T13:29:48.570Z,70.22
2023-04-16T13:32:15.454Z,69.23
2023-04-16T13:34:42.689Z,69.98
2023-04-16T13:37:09.168Z,69.57
2023-04-16T13:39:36.011Z,69.73
2023-04-16T13:42:02.767Z,70.02
2023-04-16T13:44:29.453Z,68.79
2023-04-16T13:46:56.290Z,66.99
2023-04-16T13:49:23.542Z,66.81
2023-04-16T13:51:50.717Z,66.15
2023-04-16T13:54:17.276Z,65.68
2023-04-16T13:56:44.003Z,65.57
2023-04-16T13:59:11.021Z,65.48
2023-04-16T14:01:37.913Z,64.58
2023-04-16T14:04:06.796Z,64.15
2023-04-16T14:06:34.778Z,64.32
2023-04-16T14:09:01.985Z,64.28
2023-04-16T14:11:28.788Z,64.71
2023-04-16T14:14:13.999Z,64.95
2023-04-16T14:16:40.680Z,64.37
2023-04-16T14:19:07.201Z,64.21
2023-04-16T14:21:33.667Z,63.57
2023-04-16T14:24:00.284Z,64.39
2023-04-16T14:26:26.883Z,63.77
2023-04-16T14:28:53.465Z,63.15
2023-04-16T14:31:20.580Z,63.87
2023-04-16T14:33:47.301Z,64.33
2023-04-16T14:36:14.179Z,64.63
2023-04-16T14:38:40.865Z,64.70
2023-04-16T14:41:07.328Z,64.84
2023-04-16T14:43:34.155Z,62.70
2023-04-16T14:46:00.625Z,63.83
2023-04-16T14:48:27.164Z,64.94
2023-04-16T14:50:54.000Z,64.70
2023-04-16T14:53:20.549Z,65.53
2023-04-16T14:55:47.574Z,65.76
2023-04-16T14:58:14.145Z,65.73
2023-04-16T15:00:40.983Z,66.70
2023-04-16T15:03:07.701Z,66.12
2023-04-16T15:05:35.653Z,66.08
2023-04-16T15:08:02.449Z,66.31
2023-04-16T15:10:28.977Z,64.82
2023-04-16T15:12:55.471Z,65.50
2023-04-16T15:15:21.960Z,65.21
2023-04-16T15:17:50.276Z,66.57
2023-04-16T15:20:16.727Z,65.30
2023-04-16T15:22:43.150Z,66.41
2023-04-16T15:25:09.716Z,66.43
2023-04-16T15:27:36.615Z,66.79
2023-04-16T15:30:03.510Z,66.41
2023-04-16T15:32:31.061Z,65.74
2023-04-16T15:34:57.544Z,66.01
2023-04-16T15:37:24.153Z,66.88
2023-04-16T15:39:50.783Z,67.07
2023-04-16T15:42:17.350Z,67.89
2023-04-16T15:44:43.857Z,67.62
2023-04-16T15:47:10.759Z,67.92
2023-04-16T15:49:37.232Z,68.80
2023-04-16T15:52:04.002Z,67.95
2023-04-16T15:54:31.683Z,68.28
2023-04-16T15:56:58.955Z,69.60
2023-04-16T15:59:29.016Z,68.99
2023-04-16T16:01:55.949Z,69.17
2023-04-16T16:04:23.282Z,69.82
2023-04-16T16:06:50.858Z,68.64
2023-04-16T16:09:18.575Z,70.17
2023-04-16T16:11:45.133Z,69.11
2023-04-16T16:14:11.832Z,70.73
2023-04-16T16:16:39.632Z,69.20
2023-04-16T16:19:06.854Z,68.99
2023-04-16T16:21:33.513Z,69.63
2023-04-16T16:24:00.244Z,69.59
2023-04-16T16:26:27.950Z,70.68
2023-04-16T16:28:54.399Z,71.26
2023-04-16T16:31:21.093Z,70.99
2023-04-16T16:33:47.697Z,70.49
2023-04-16T16:36:14.296Z,71.21
2023-04-16T16:38:41.285Z,71.17
2023-04-16T16:41:08.107Z,71.31
2023-04-16T16:43:37.669Z,72.21
2023-04-16T16:46:05.695Z,72.56
2023-04-16T16:48:32.050Z,72.25
2023-04-16T16:50:58.615Z,72.15
2023-04-16T16:53:25.217Z,73.56
2023-04-16T16:55:51.648Z,73.42
2023-04-16T16:58:18.071Z,73.83
2023-04-16T17:00:44.601Z,73.98
2023-04-16T17:03:11.404Z,74.50
2023-04-16T17:05:38.177Z,75.03
2023-04-16T17:08:04.814Z,74.95
2023-04-16T17:10:31.259Z,75.71
2023-04-16T17:12:57.746Z,76.24
2023-04-16T17:15:24.325Z,76.45
2023-04-16T17:17:50.893Z,76.73
2023-04-16T17:20:17.531Z,76.66
2023-04-16T17:22:44.084Z,76.90
2023-04-16T17:25:10.922Z,77.16
2023-04-16T17:27:37.397Z,77.61
2023-04-16T17:30:05.462Z,77.85
2023-04-16T17:32:32.718Z,78.04
2023-04-16T17:35:01.120Z,78.01
2023-04-16T17:37:27.730Z,78.00
2023-04-16T17:39:54.240Z,77.79
2023-04-16T17:42:20.715Z,78.24
2023-04-16T17:44:47.571Z,78.28
2023-04-16T17:47:14.251Z,78.28
2023-04-16T17:49:40.950Z,78.08
2023-04-16T17:52:07.596Z,78.54
2023-04-16T17:54:34.370Z,78.93
2023-04-16T17:57:01.770Z,79.00
2023-04-16T17:59:28.545Z,78.23
2023-04-16T18:01:56.233Z,78.38
2023-04-16T18:04:23.060Z,79.43
2023-04-16T18:06:49.586Z,79.21
2023-04-16T18:09:16.134Z,79.68
2023-04-16T18:11:42.657Z,80.35
2023-04-16T18:14:11.499Z,80.69
2023-04-16T18:16:38.237Z,79.96
2023-04-16T18:19:05.522Z,80.53
2023-04-16T18:21:32.117Z,80.83
2023-04-16T18:24:00.838Z,80.51
2023-04-16T18:26:29.718Z,81.62
2023-04-16T18:28:56.643Z,82.13
2023-04-16T18:31:23.171Z,80.33
2023-04-16T18:33:57.252Z,82.73
2023-04-16T18:36:24.449Z,81.64
2023-04-16T18:39:01.021Z,81.16
2023-04-16T18:41:29.278Z,82.93
2023-04-16T18:43:55.974Z,82.10
2023-04-16T18:46:22.618Z,81.74
2023-04-16T18:48:49.230Z,81.08
2023-04-16T18:51:16.713Z,81.21
2023-04-16T18:53:44.320Z,81.13
2023-04-16T18:56:11.515Z,82.00
2023-04-16T18:58:38.090Z,81.88
2023-04-16T19:01:05.349Z,81.09
2023-04-16T19:03:32.082Z,82.01
2023-04-16T19:05:58.783Z,81.59
2023-04-16T19:08:25.361Z,81.47
2023-04-16T19:10:51.860Z,82.28
2023-04-16T19:13:18.333Z,82.82
2023-04-16T19:15:44.728Z,82.11
2023-04-16T19:18:11.208Z,83.33
2023-04-16T19:20:37.796Z,83.09
2023-04-16T19:23:05.596Z,84.29
2023-04-16T19:25:32.577Z,83.82
2023-04-16T19:27:59.375Z,82.92
2023-04-16T19:30:26.439Z,82.19
2023-04-16T19:32:55.182Z,83.88
2023-04-16T19:35:22.105Z,82.98
2023-04-16T19:37:48.688Z,82.14
2023-04-16T19:40:15.264Z,83.37
2023-04-16T19:42:41.954Z,82.10
2023-04-16T19:45:08.653Z,83.12
2023-04-16T19:47:35.559Z,83.02
2023-04-16T19:50:02.149Z,83.02
2023-04-16T19:52:28.619Z,84.43
2023-04-16T19:54:56.904Z,83.83
2023-04-16T20:03:16.647Z,84.70
2023-04-16T20:03:59.450Z,83.77
2023-04-16T20:05:43.091Z,84.54
2023-04-16T20:08:09.516Z,85.18
2023-04-16T20:10:36.091Z,85.78
2023-04-16T20:13:02.577Z,85.50
2023-04-16T20:15:28.993Z,85.40
2023-04-16T20:17:56.198Z,85.75
2023-04-16T20:20:23.564Z,86.08
2023-04-16T20:22:53.022Z,86.25
2023-04-16T20:25:19.667Z,86.52
2023-04-16T20:27:46.235Z,86.82
2023-04-16T20:30:13.456Z,87.24
2023-04-16T20:32:40.001Z,87.85
2023-04-16T20:35:10.398Z,88.15
2023-04-16T20:37:38.460Z,87.66
2023-04-16T20:40:07.785Z,88.25
2023-04-16T20:42:34.515Z,89.41
2023-04-16T20:45:01.327Z,89.69
2023-04-16T20:47:27.808Z,89.07
2023-04-16T20:49:54.910Z,89.62
2023-04-16T20:52:59.781Z,89.19
2023-04-16T20:58:16.665Z,89.57
2023-04-16T21:00:43.162Z,89.61
2023-04-16T21:03:09.754Z,89.55
2023-04-16T21:05:36.971Z,89.49
2023-04-16T21:08:03.466Z,89.00
2023-04-16T21:10:29.895Z,89.70
2023-04-16T21:12:56.308Z,89.95
2023-04-16T21:15:22.887Z,90.11
2023-04-16T21:17:49.480Z,89.75
2023-04-16T21:20:16.114Z,90.47
2023-04-16T21:22:42.636Z,89.98
2023-04-16T21:25:09.470Z,89.89
2023-04-16T21:27:35.827Z,91.37
2023-04-16T21:30:02.282Z,91.62
2023-04-16T21:32:28.883Z,92.06
2023-04-16T21:34:55.760Z,92.93
2023-04-16T21:37:22.222Z,94.53
2023-04-16T21:39:48.679Z,93.74
2023-04-16T21:42:15.545Z,94.26
2023-04-16T21:44:42.098Z,93.59
2023-04-16T21:47:08.598Z,94.18
2023-04-16T21:49:35.075Z,94.42
2023-04-16T21:52:02.523Z,94.70
2023-04-16T21:54:29.102Z,94.46
2023-04-16T21:56:56.633Z,94.13
2023-04-16T21:59:23.259Z,93.76
2023-04-16T22:01:49.751Z,94.22
2023-04-16T22:04:16.266Z,94.40
2023-04-16T22:06:43.177Z,94.33
2023-04-16T22:09:09.907Z,93.78
2023-04-16T22:11:36.577Z,93.50
2023-04-16T22:14:03.035Z,94.13
2023-04-16T22:16:29.546Z,94.14
2023-04-16T22:18:56.513Z,93.89
2023-04-16T22:21:22.949Z,94.30
2023-04-16T22:23:49.414Z,93.86
2023-04-16T22:26:16.032Z,94.23
2023-04-16T22:28:42.391Z,94.61
2023-04-16T22:31:10.075Z,94.66
2023-04-16T22:33:36.865Z,94.78
2023-04-16T22:36:03.437Z,94.73
2023-04-16T22:38:29.894Z,95.77
2023-04-16T22:40:56.352Z,95.94
2023-04-16T22:43:23.009Z,95.39
2023-04-16T22:45:49.520Z,94.76
2023-04-16T22:48:16.364Z,95.37
2023-04-16T22:50:48.441Z,96.50
2023-04-16T22:53:15.032Z,96.34
2023-04-16T22:55:41.593Z,96.10
2023-04-16T22:58:07.995Z,95.84
2023-04-16T23:00:34.480Z,95.53
2023-04-16T23:03:01.393Z,95.77
2023-04-16T23:05:28.001Z,96.20
2023-04-16T23:07:54.514Z,96.33
2023-04-16T23:10:20.937Z,96.99
2023-04-16T23:12:47.334Z,98.50
2023-04-16T23:15:14.458Z,98.12
2023-04-16T23:17:41.062Z,98.08
2023-04-16T23:20:09.967Z,98.68
2023-04-16T23:22:36.536Z,98.65
2023-04-16T23:25:03.067Z,97.92
2023-04-16T23:27:29.515Z,98.86
2023-04-16T23:29:55.895Z,98.47
2023-04-16T23:32:22.322Z,98.68
2023-04-16T23:34:48.806Z,98.52
2023-04-16T23:37:15.483Z,99.80
2023-04-16T23:39:41.831Z,99.78
2023-04-16T23:42:08.358Z,99.11
2023-04-16T23:44:34.793Z,98.96
2023-04-16T23:47:01.380Z,99.00
2023-04-16T23:49:28.163Z,100.00
2023-04-16T23:51:54.650Z,99.81
2023-04-16T23:54:21.392Z,100.00
2023-04-16T23:56:47.808Z,100.00
2023-04-16T23:59:14.642Z,100.00
